Time;durP1;ratioP1;P1;durP2;ratioP2;P2;SDS_P1;SDS_P2;PMS_P1;PMS_P2;Temp;Humidity;BMP_temperature;BMP_pressure;BME280_temperature;BME280_humidity;BME280_pressure;Samples;Min_cycle;Max_cycle;Signal;HPM_P1;HPM_P2
2023/03/20 00:01:33;;;;;;;5.43;1.02;;;12.50;99.90;;;;;;7400607;19;19918;-74
2023/03/20 00:03:59;;;;;;;4.13;1.08;;;12.50;99.90;;;;;;7400150;19;19987;-73
2023/03/20 00:06:31;;;;;;;1.98;0.63;;;12.60;99.90;;;;;;7400311;19;20617;-74
2023/03/20 00:08:57;;;;;;;2.45;0.80;;;12.50;99.90;;;;;;7399761;19;19915;-73
2023/03/20 00:11:31;;;;;;;4.13;0.88;;;12.50;99.90;;;;;;7401924;19;19935;-74
2023/03/20 00:14:09;;;;;;;3.20;0.88;;;12.50;99.90;;;;;;7401482;19;20268;-74
2023/03/20 00:16:38;;;;;;;4.97;0.95;;;12.50;99.90;;;;;;7404201;19;19940;-74
2023/03/20 00:19:05;;;;;;;4.65;1.15;;;12.40;99.90;;;;;;7404329;19;19922;-73
2023/03/20 00:21:32;;;;;;;3.47;0.95;;;12.40;99.90;;;;;;7403091;19;19943;-73
2023/03/20 00:23:58;;;;;;;3.05;0.88;;;12.40;99.90;;;;;;7408296;19;19922;-73
2023/03/20 00:26:31;;;;;;;2.47;0.73;;;12.30;99.90;;;;;;7403649;19;19918;-74
2023/03/20 00:28:57;;;;;;;4.15;1.10;;;12.30;99.90;;;;;;7404159;19;20257;-73
2023/03/20 00:31:28;;;;;;;3.35;1.15;;;12.30;99.90;;;;;;7406988;19;20384;-73
2023/03/20 00:33:56;;;;;;;3.10;0.90;;;12.30;99.90;;;;;;7394907;19;19951;-73
2023/03/20 00:36:22;;;;;;;3.20;0.70;;;12.30;99.90;;;;;;7394235;19;19930;-72
2023/03/20 00:38:49;;;;;;;5.32;1.20;;;12.30;99.90;;;;;;7400706;19;19990;-73
2023/03/20 00:41:20;;;;;;;5.05;1.00;;;12.30;99.90;;;;;;7404037;19;19918;-73
2023/03/20 00:43:49;;;;;;;3.70;0.90;;;12.30;99.90;;;;;;7407710;19;19919;-73
2023/03/20 00:46:15;;;;;;;4.43;1.05;;;12.30;99.90;;;;;;7404422;19;20331;-73
2023/03/20 00:48:42;;;;;;;3.22;0.88;;;12.30;99.90;;;;;;7409729;19;19918;-72
2023/03/20 00:51:08;;;;;;;;;;;12.20;99.90;;;;;;7406188;19;20609;-73
2023/03/20 00:53:34;;;;;;;3.20;0.93;;;12.20;99.90;;;;;;7407134;19;19942;-74
2023/03/20 00:56:01;;;;;;;4.93;0.90;;;12.10;99.90;;;;;;7405594;19;20023;-74
2023/03/20 00:58:27;;;;;;;3.75;0.90;;;12.10;99.90;;;;;;7406977;19;19922;-73
2023/03/20 01:00:54;;;;;;;4.88;1.00;;;12.00;99.90;;;;;;7405482;19;19926;-72
2023/03/20 01:03:23;;;;;;;2.55;0.73;;;12.10;99.90;;;;;;7407063;19;19919;-73
2023/03/20 01:05:49;;;;;;;3.90;0.80;;;12.10;99.90;;;;;;7403818;19;19918;-72
2023/03/20 01:08:21;;;;;;;3.45;0.80;;;12.10;99.90;;;;;;7403331;19;19917;-72
2023/03/20 01:10:53;;;;;;;3.58;0.93;;;12.20;99.90;;;;;;7407461;19;19906;-74
2023/03/20 01:13:31;;;;;;;3.90;0.95;;;12.20;99.90;;;;;;7402939;19;19915;-73
2023/03/20 01:15:57;;;;;;;2.30;0.75;;;12.20;99.90;;;;;;7407192;19;19922;-73
2023/03/20 01:18:25;;;;;;;3.90;1.10;;;12.20;99.90;;;;;;7403918;19;19942;-73
2023/03/20 01:20:51;;;;;;;4.78;0.88;;;12.20;99.90;;;;;;7403587;19;19914;-72
2023/03/20 01:23:19;;;;;;;3.22;1.05;;;12.10;99.90;;;;;;7405388;19;19919;-73
2023/03/20 01:25:45;;;;;;;3.15;0.80;;;12.20;99.90;;;;;;7404862;19;20454;-73
2023/03/20 01:28:13;;;;;;;3.58;1.05;;;12.10;99.90;;;;;;7401205;19;19918;-73
2023/03/20 01:30:39;;;;;;;4.18;1.38;;;12.00;99.90;;;;;;7405388;19;19942;-73
2023/03/20 01:33:20;;;;;;;4.75;1.00;;;12.00;99.90;;;;;;7405063;19;20443;-72
2023/03/20 01:35:47;;;;;;;5.55;1.02;;;12.10;99.90;;;;;;7402600;19;19923;-73
2023/03/20 01:38:15;;;;;;;3.20;0.75;;;12.00;99.90;;;;;;7403718;19;20039;-73
2023/03/20 01:40:56;;;;;;;5.72;1.20;;;12.00;99.90;;;;;;7404339;19;19926;-74
2023/03/20 01:43:23;;;;;;;3.10;1.00;;;12.00;99.90;;;;;;7402557;19;20355;-74
2023/03/20 01:45:58;;;;;;;3.97;1.15;;;12.00;99.90;;;;;;7403456;19;20269;-72
2023/03/20 01:48:31;;;;;;;5.07;1.10;;;12.00;99.90;;;;;;7403292;19;20315;-73
2023/03/20 01:50:57;;;;;;;;;;;11.90;99.90;;;;;;7409692;19;20664;-73
2023/03/20 01:53:26;;;;;;;5.53;1.10;;;11.90;99.90;;;;;;7404158;19;19934;-73
2023/03/20 01:55:55;;;;;;;4.05;1.35;;;11.90;99.90;;;;;;7405868;19;19934;-73
2023/03/20 01:58:32;;;;;;;4.57;1.23;;;11.90;99.90;;;;;;7401727;19;19917;-74
2023/03/20 02:00:59;;;;;;;4.95;1.02;;;11.90;99.90;;;;;;7402176;19;19939;-73
2023/03/20 02:03:26;;;;;;;6.20;1.05;;;11.90;99.90;;;;;;7404036;19;19923;-74
2023/03/20 02:05:52;;;;;;;3.65;1.17;;;11.80;99.90;;;;;;7403469;19;20598;-72
2023/03/20 02:08:26;;;;;;;3.75;0.82;;;11.90;99.90;;;;;;7367919;19;19966;-73
2023/03/20 02:10:53;;;;;;;3.70;1.05;;;11.80;99.90;;;;;;7406978;19;19924;-74
2023/03/20 02:13:19;;;;;;;4.75;0.95;;;11.80;99.90;;;;;;7401985;19;19926;-74
2023/03/20 02:16:09;;;;;;;4.18;1.17;;;11.70;99.90;;;;;;7404172;19;19923;-73
2023/03/20 02:18:37;;;;;;;4.43;0.80;;;11.70;99.90;;;;;;7404574;19;19985;-74
2023/03/20 02:21:30;;;;;;;2.67;0.60;;;11.70;99.90;;;;;;7403514;19;19922;-73
2023/03/20 02:24:08;;;;;;;3.35;0.80;;;11.90;99.90;;;;;;7403291;19;19935;-72
2023/03/20 02:26:52;;;;;;;7.85;1.52;;;12.00;99.90;;;;;;7404671;19;19940;-73
2023/03/20 02:29:41;;;;;;;2.35;0.50;;;12.00;99.90;;;;;;7403499;19;20290;-74
2023/03/20 02:32:16;;;;;;;3.15;0.55;;;12.10;99.90;;;;;;7403776;19;20265;-73
2023/03/20 02:35:09;;;;;;;3.17;0.50;;;12.20;99.90;;;;;;7404382;19;19918;-72
2023/03/20 02:37:54;;;;;;;4.15;0.80;;;12.20;99.90;;;;;;7401715;19;19910;-73
2023/03/20 02:40:58;;;;;;;3.00;0.80;;;12.10;99.90;;;;;;7400510;19;19930;-73
2023/03/20 02:43:37;;;;;;;2.60;0.82;;;12.10;99.90;;;;;;7400500;19;19951;-73
2023/03/20 02:46:09;;;;;;;2.72;0.60;;;12.10;99.90;;;;;;7402658;19;19922;-73
2023/03/20 02:48:38;;;;;;;2.78;0.77;;;12.20;99.90;;;;;;7404143;19;19974;-74
2023/03/20 02:51:20;;;;;;;2.05;0.70;;;12.20;99.90;;;;;;7402899;19;19922;-73
2023/03/20 02:53:59;;;;;;;3.50;0.55;;;12.10;99.90;;;;;;7403098;19;19929;-73
2023/03/20 02:56:48;;;;;;;6.43;1.10;;;12.10;99.90;;;;;;7399966;19;19918;-74
2023/03/20 02:59:50;;;;;;;3.78;0.95;;;12.00;99.90;;;;;;7404185;19;19975;-73
2023/03/20 03:02:33;;;;;;;2.97;0.88;;;12.10;99.90;;;;;;7399040;19;19923;-74
2023/03/20 03:05:03;;;;;;;3.20;0.60;;;12.10;99.90;;;;;;7402768;19;19926;-73
2023/03/20 03:07:32;;;;;;;2.80;0.73;;;12.10;99.90;;;;;;7401253;19;19929;-73
2023/03/20 03:10:12;;;;;;;2.50;0.77;;;12.10;99.90;;;;;;7381130;19;20359;-74
2023/03/20 03:12:42;;;;;;;2.28;0.45;;;12.10;99.90;;;;;;7401815;19;20067;-73
2023/03/20 03:15:28;;;;;;;3.95;0.80;;;12.10;99.90;;;;;;7400877;19;20263;-73
2023/03/20 03:17:57;;;;;;;3.35;0.88;;;12.00;99.90;;;;;;7403604;19;20011;-73
2023/03/20 03:20:36;;;;;;;3.20;0.98;;;12.00;99.90;;;;;;7371543;19;19980;-72
2023/03/20 03:23:02;;;;;;;3.67;0.90;;;12.00;99.90;;;;;;7404520;19;19926;-73
2023/03/20 03:25:34;;;;;;;2.33;0.73;;;11.90;99.90;;;;;;7402180;19;19915;-73
2023/03/20 03:28:03;;;;;;;2.80;0.80;;;11.80;99.90;;;;;;7402383;19;19918;-72
2023/03/20 03:30:33;;;;;;;3.35;0.75;;;11.80;99.90;;;;;;7402862;19;20307;-72
2023/03/20 03:33:22;;;;;;;4.63;0.90;;;11.70;99.90;;;;;;7401230;19;19974;-74
2023/03/20 03:35:50;;;;;;;2.47;0.68;;;11.70;99.90;;;;;;7400623;19;19906;-73
2023/03/20 03:38:19;;;;;;;3.75;0.70;;;11.70;99.90;;;;;;7402456;19;19922;-73
2023/03/20 03:41:01;;;;;;;4.35;0.93;;;11.60;99.90;;;;;;7401164;19;19918;-74
2023/03/20 03:43:55;;;;;;;3.35;0.75;;;11.60;99.90;;;;;;7401097;19;19919;-73
2023/03/20 03:46:32;;;;;;;2.15;0.60;;;11.60;99.90;;;;;;7399292;19;19922;-73
2023/03/20 03:49:01;;;;;;;2.67;0.50;;;11.70;99.90;;;;;;7400235;19;20202;-73
2023/03/20 03:51:31;;;;;;;2.25;0.65;;;11.70;99.90;;;;;;7400367;19;20275;-72
2023/03/20 03:54:09;;;;;;;2.83;0.52;;;11.60;99.90;;;;;;7401158;19;19932;-73
2023/03/20 03:56:38;;;;;;;2.10;0.52;;;11.70;99.90;;;;;;7399121;19;19923;-73
2023/03/20 03:59:31;;;;;;;2.85;0.47;;;11.70;99.90;;;;;;7400192;19;19907;-73
2023/03/20 04:01:58;;;;;;;3.53;0.70;;;11.70;99.90;;;;;;7400395;19;19921;-72
2023/03/20 04:04:25;;;;;;;2.10;0.50;;;11.70;99.90;;;;;;7368255;19;19990;-74
2023/03/20 04:06:51;;;;;;;4.60;0.63;;;11.70;99.90;;;;;;7400236;19;20411;-72
2023/03/20 04:09:17;;;;;;;1.80;0.70;;;11.60;99.90;;;;;;7401619;19;19950;-72
2023/03/20 04:11:48;;;;;;;2.22;0.40;;;11.60;99.90;;;;;;7400429;19;19915;-73
2023/03/20 04:14:14;;;;;;;2.08;0.60;;;11.60;99.90;;;;;;7399550;19;20006;-73
2023/03/20 04:16:39;;;;;;;5.60;0.65;;;11.60;99.90;;;;;;7400938;19;19948;-73
2023/03/20 04:19:05;;;;;;;2.80;0.52;;;11.60;99.90;;;;;;7400499;19;19986;-73
2023/03/20 04:21:31;;;;;;;3.80;0.63;;;11.70;99.90;;;;;;7401745;19;19970;-73
2023/03/20 04:23:57;;;;;;;1.17;0.43;;;11.60;99.90;;;;;;7402942;19;19921;-74
2023/03/20 04:26:24;;;;;;;2.97;0.75;;;11.80;99.90;;;;;;7405996;19;19976;-72
2023/03/20 04:28:50;;;;;;;3.80;0.70;;;11.70;99.90;;;;;;7406262;19;19922;-73
2023/03/20 04:31:17;;;;;;;3.25;0.70;;;11.70;99.90;;;;;;7403805;19;19921;-72
2023/03/20 04:33:43;;;;;;;4.40;0.98;;;11.70;99.90;;;;;;7375750;19;19911;-74
2023/03/20 04:36:09;;;;;;;4.22;0.90;;;11.70;99.90;;;;;;7405022;19;19915;-72
2023/03/20 04:38:35;;;;;;;3.40;0.95;;;11.70;99.90;;;;;;7405154;19;19914;-73
2023/03/20 04:41:02;;;;;;;4.97;0.90;;;11.60;99.90;;;;;;7402890;19;19918;-73
2023/03/20 04:43:27;;;;;;;3.17;0.82;;;11.50;99.90;;;;;;7401962;19;19950;-73
2023/03/20 04:45:53;;;;;;;4.65;1.00;;;11.40;99.90;;;;;;7408502;19;19934;-73
2023/03/20 04:48:19;;;;;;;3.88;1.23;;;11.30;99.90;;;;;;7405923;19;19990;-74
2023/03/20 04:50:47;;;;;;;5.28;0.90;;;11.20;99.90;;;;;;7409528;19;20375;-73
2023/03/20 04:53:14;;;;;;;3.00;0.93;;;11.30;99.90;;;;;;7404812;19;20327;-73
2023/03/20 04:55:40;;;;;;;;;;;11.30;99.90;;;;;;7405601;19;19946;-72
2023/03/20 04:58:07;;;;;;;4.07;0.82;;;11.30;99.90;;;;;;7386077;19;19970;-72
2023/03/20 05:00:33;;;;;;;4.60;0.90;;;11.20;99.90;;;;;;7406373;19;19929;-72
2023/03/20 05:03:00;;;;;;;2.60;0.70;;;11.30;99.90;;;;;;7406179;19;19978;-73
2023/03/20 05:05:26;;;;;;;3.75;0.70;;;11.30;99.90;;;;;;7404400;19;19922;-74
2023/03/20 05:07:52;;;;;;;3.08;0.80;;;11.30;99.90;;;;;;7406161;19;19918;-73
2023/03/20 05:10:18;;;;;;;5.15;0.93;;;11.30;99.90;;;;;;7403644;19;19911;-73
2023/03/20 05:12:44;;;;;;;2.47;0.60;;;11.30;99.90;;;;;;7404875;19;19922;-73
2023/03/20 05:15:10;;;;;;;5.10;0.90;;;11.30;99.90;;;;;;7404196;19;19922;-73
2023/03/20 05:17:36;;;;;;;3.10;0.65;;;11.30;99.90;;;;;;7409228;19;20270;-73
2023/03/20 05:20:02;;;;;;;5.78;0.90;;;11.30;99.90;;;;;;7406437;19;19919;-74
2023/03/20 05:22:27;;;;;;;3.83;0.80;;;11.30;99.90;;;;;;7406314;19;20338;-73
2023/03/20 05:24:53;;;;;;;2.67;0.82;;;11.30;99.90;;;;;;7406323;19;20235;-75
2023/03/20 05:27:19;;;;;;;4.07;0.80;;;11.30;99.90;;;;;;7404312;19;19974;-73
2023/03/20 05:29:45;;;;;;;5.15;0.70;;;11.30;99.90;;;;;;7405977;19;20223;-73
2023/03/20 05:32:11;;;;;;;4.05;0.70;;;11.30;99.90;;;;;;7405163;19;20575;-73
2023/03/20 05:34:37;;;;;;;5.13;1.05;;;11.30;99.90;;;;;;7401965;19;20370;-73
2023/03/20 05:37:03;;;;;;;2.15;0.52;;;11.20;99.90;;;;;;7404221;19;19939;-73
2023/03/20 05:39:29;;;;;;;2.95;0.80;;;11.30;99.90;;;;;;7403439;19;19999;-73
2023/03/20 05:41:55;;;;;;;3.40;0.88;;;11.30;99.90;;;;;;7406062;19;19918;-73
2023/03/20 05:44:21;;;;;;;2.00;0.60;;;11.30;99.90;;;;;;7370400;19;19958;-73
2023/03/20 05:46:46;;;;;;;3.75;1.23;;;11.30;99.90;;;;;;7404853;19;20014;-73
2023/03/20 05:49:12;;;;;;;5.72;0.80;;;11.20;99.90;;;;;;7402211;19;20250;-72
2023/03/20 05:51:38;;;;;;;3.15;0.70;;;11.10;99.90;;;;;;7403848;19;19923;-73
2023/03/20 05:54:04;;;;;;;3.15;0.90;;;11.10;99.90;;;;;;7402223;19;19922;-73
2023/03/20 05:56:30;;;;;;;4.55;0.85;;;11.10;99.90;;;;;;7405426;19;19933;-74
2023/03/20 05:58:56;;;;;;;2.78;0.70;;;11.10;99.90;;;;;;7405673;19;19915;-73
2023/03/20 06:01:22;;;;;;;2.97;0.60;;;11.20;99.90;;;;;;7403271;19;19914;-73
2023/03/20 06:03:48;;;;;;;3.60;0.80;;;11.10;99.90;;;;;;7404791;19;19943;-73
2023/03/20 06:06:15;;;;;;;4.63;0.90;;;11.10;99.90;;;;;;7404097;19;19994;-73
2023/03/20 06:08:41;;;;;;;5.03;0.90;;;11.10;99.90;;;;;;7404331;19;19925;-73
2023/03/20 06:11:08;;;;;;;3.75;1.00;;;11.20;99.90;;;;;;7404861;19;19970;-73
2023/03/20 06:13:34;;;;;;;4.13;1.10;;;11.30;99.90;;;;;;7404778;19;19915;-73
2023/03/20 06:15:59;;;;;;;3.95;0.80;;;11.40;99.90;;;;;;7404648;19;19929;-73
2023/03/20 06:18:26;;;;;;;2.95;0.90;;;11.30;99.90;;;;;;7404812;19;19934;-73
2023/03/20 06:20:53;;;;;;;3.70;0.80;;;11.40;99.90;;;;;;7402545;19;19911;-73
2023/03/20 06:23:19;;;;;;;5.75;1.02;;;11.40;99.90;;;;;;7398631;19;20006;-74
2023/03/20 06:25:46;;;;;;;4.47;0.93;;;11.50;99.90;;;;;;7406137;19;19938;-73
2023/03/20 06:28:12;;;;;;;4.22;0.80;;;11.50;99.90;;;;;;7404237;19;19915;-73
2023/03/20 06:30:38;;;;;;;3.85;0.90;;;11.50;99.90;;;;;;7404685;19;19925;-74
2023/03/20 06:33:07;;;;;;;4.05;1.00;;;11.60;99.90;;;;;;7404047;19;19922;-73
2023/03/20 06:35:34;;;;;;;7.05;1.58;;;11.60;99.90;;;;;;7372989;19;20395;-73
2023/03/20 06:38:00;;;;;;;3.55;0.90;;;11.70;99.90;;;;;;7410026;19;19919;-75
2023/03/20 06:40:29;;;;;;;3.92;1.00;;;11.60;99.90;;;;;;7405544;19;19911;-75
2023/03/20 06:42:55;;;;;;;5.78;1.10;;;11.80;99.90;;;;;;7404110;19;19922;-74
2023/03/20 06:45:21;;;;;;;4.95;1.63;;;11.80;99.90;;;;;;7402975;19;19978;-75
2023/03/20 06:47:47;;;;;;;6.85;2.42;;;11.80;99.90;;;;;;7402642;19;19906;-75
2023/03/20 06:50:14;;;;;;;6.70;1.52;;;11.90;99.90;;;;;;7402181;19;20007;-75
2023/03/20 06:52:43;;;;;;;5.78;1.60;;;11.90;99.90;;;;;;7407902;19;19915;-73
2023/03/20 06:55:09;;;;;;;3.75;1.25;;;11.90;99.90;;;;;;7402590;19;19918;-75
2023/03/20 06:57:36;;;;;;;6.97;1.55;;;11.90;99.90;;;;;;7405945;19;20359;-75
2023/03/20 07:00:04;;;;;;;4.75;1.33;;;11.90;99.90;;;;;;7406088;19;20614;-75
2023/03/20 07:02:36;;;;;;;5.20;1.23;;;12.00;99.90;;;;;;7405003;19;19922;-74
2023/03/20 07:05:02;;;;;;;5.13;1.13;;;12.10;99.90;;;;;;7400920;19;19914;-74
2023/03/20 07:07:29;;;;;;;5.38;1.70;;;12.10;99.90;;;;;;7403226;19;20246;-74
2023/03/20 07:09:55;;;;;;;5.35;1.35;;;12.20;99.90;;;;;;7405953;19;19925;-74
2023/03/20 07:12:21;;;;;;;4.75;1.70;;;12.20;99.90;;;;;;7406985;19;19918;-76
2023/03/20 07:14:48;;;;;;;5.15;1.40;;;12.30;99.90;;;;;;7403400;19;19907;-75
2023/03/20 07:17:14;;;;;;;;;;;12.50;99.90;;;;;;7373952;19;20010;-74
2023/03/20 07:19:40;;;;;;;3.63;1.27;;;12.60;99.50;;;;;;7406066;19;19919;-75
2023/03/20 07:22:10;;;;;;;3.65;1.02;;;12.70;96.30;;;;;;7405075;19;19918;-74
2023/03/20 07:24:36;;;;;;;4.82;1.50;;;12.80;95.70;;;;;;7404413;19;19991;-74
2023/03/20 07:27:01;;;;;;;3.55;1.27;;;12.90;95.90;;;;;;7404954;19;20278;-75
2023/03/20 07:29:27;;;;;;;4.80;1.23;;;13.00;94.90;;;;;;7401338;19;19931;-74
2023/03/20 07:31:53;;;;;;;3.88;1.20;;;13.00;94.30;;;;;;7405936;19;19943;-74
2023/03/20 07:34:19;;;;;;;4.40;1.38;;;13.00;94.30;;;;;;7406490;19;20280;-76
2023/03/20 07:36:45;;;;;;;4.32;1.35;;;13.10;93.90;;;;;;7404774;19;19995;-75
2023/03/20 07:39:12;;;;;;;3.95;1.20;;;13.20;93.60;;;;;;7403431;19;20519;-76
2023/03/20 07:41:38;;;;;;;2.47;0.90;;;13.20;93.90;;;;;;7406993;19;19957;-75
2023/03/20 07:44:06;;;;;;;3.50;1.23;;;13.30;93.70;;;;;;7403550;19;20381;-74
2023/03/20 07:46:32;;;;;;;2.85;1.02;;;13.40;93.00;;;;;;7405447;19;19915;-76
2023/03/20 07:48:58;;;;;;;4.15;1.40;;;13.50;93.10;;;;;;7402253;19;19949;-75
2023/03/20 07:51:24;;;;;;;3.28;1.30;;;13.50;93.10;;;;;;7403542;19;19919;-75
2023/03/20 07:53:50;;;;;;;4.60;1.55;;;13.60;93.00;;;;;;7403048;19;19926;-75
2023/03/20 07:56:16;;;;;;;5.22;1.20;;;13.70;93.00;;;;;;7402758;19;19915;-74
2023/03/20 07:58:41;;;;;;;5.07;1.20;;;13.80;92.80;;;;;;7404736;19;20646;-75
2023/03/20 08:01:07;;;;;;;6.22;1.20;;;13.80;92.50;;;;;;7408368;19;20331;-75
2023/03/20 08:03:33;;;;;;;3.80;1.30;;;13.80;92.00;;;;;;7406409;19;19919;-75
2023/03/20 08:06:00;;;;;;;2.25;0.68;;;13.90;91.60;;;;;;7407631;19;19943;-74
2023/03/20 08:08:26;;;;;;;5.65;0.90;;;14.00;90.70;;;;;;7386099;19;19914;-74
2023/03/20 08:10:52;;;;;;;2.75;1.02;;;14.10;89.60;;;;;;7409931;19;19935;-75
2023/03/20 08:13:17;;;;;;;2.65;0.65;;;14.20;88.70;;;;;;7408505;19;19934;-75
2023/03/20 08:15:45;;;;;;;2.42;1.00;;;14.30;86.50;;;;;;7409158;19;19919;-74
2023/03/20 08:18:10;;;;;;;4.40;1.13;;;14.30;85.50;;;;;;7407081;19;19925;-75
2023/03/20 08:20:36;;;;;;;3.30;0.93;;;14.40;87.50;;;;;;7406071;19;19915;-74
2023/03/20 08:23:02;;;;;;;4.70;1.17;;;14.40;88.00;;;;;;7406800;19;19919;-74
2023/03/20 08:25:32;;;;;;;2.72;0.93;;;14.40;88.00;;;;;;7405173;19;19919;-75
2023/03/20 08:28:02;;;;;;;2.40;0.82;;;14.50;87.60;;;;;;7409722;19;19922;-74
2023/03/20 08:30:28;;;;;;;3.60;1.00;;;14.70;87.50;;;;;;7405831;19;19922;-75
2023/03/20 08:32:55;;;;;;;3.63;0.77;;;14.80;86.70;;;;;;7398592;19;19919;-74
2023/03/20 08:35:21;;;;;;;2.75;0.98;;;14.90;85.40;;;;;;7367652;19;19922;-75
2023/03/20 08:37:46;;;;;;;3.65;0.82;;;15.00;84.10;;;;;;7402536;19;19910;-75
2023/03/20 08:40:14;;;;;;;2.38;0.82;;;17.30;78.80;;;;;;7402834;19;20749;-73
2023/03/20 08:42:49;;;;;;;2.47;0.90;;;19.20;75.60;;;;;;7385362;19;20267;-73
2023/03/20 08:45:15;;;;;;;3.63;0.95;;;20.80;71.60;;;;;;7382973;19;20244;-73
2023/03/20 08:47:42;;;;;;;;;;;21.60;68.80;;;;;;7396742;19;19922;-74
2023/03/20 08:50:09;;;;;;;6.75;1.63;;;22.20;66.90;;;;;;7394159;19;19927;-73
2023/03/20 08:52:35;;;;;;;;;;;22.60;65.20;;;;;;7399456;19;20335;-73
2023/03/20 08:55:00;;;;;;;2.97;1.10;;;23.10;64.40;;;;;;7403425;19;19918;-73
2023/03/20 08:57:26;;;;;;;2.80;1.35;;;23.70;62.90;;;;;;7398758;19;20013;-73
2023/03/20 08:59:52;;;;;;;4.43;1.20;;;24.20;61.70;;;;;;7398600;19;19930;-73
2023/03/20 09:02:18;;;;;;;3.88;1.10;;;24.50;60.30;;;;;;7392737;19;19982;-74
2023/03/20 09:04:43;;;;;;;2.42;1.30;;;25.00;60.40;;;;;;7403600;19;19917;-76
2023/03/20 09:07:10;;;;;;;2.65;1.55;;;25.90;60.30;;;;;;7404708;19;19922;-74
2023/03/20 09:09:35;;;;;;;3.60;1.48;;;26.20;58.10;;;;;;7399822;19;19947;-74
2023/03/20 09:12:01;;;;;;;4.38;1.70;;;26.50;58.20;;;;;;7394373;19;19986;-74
2023/03/20 09:14:28;;;;;;;4.38;1.60;;;26.60;57.70;;;;;;7399784;19;19951;-74
2023/03/20 09:16:54;;;;;;;7.85;3.38;;;26.60;57.60;;;;;;7396361;19;20334;-75
2023/03/20 09:19:19;;;;;;;6.60;3.15;;;25.60;59.00;;;;;;7401408;19;19915;-75
2023/03/20 09:21:46;;;;;;;6.53;3.55;;;26.10;59.80;;;;;;7337341;19;19922;-74
2023/03/20 09:24:12;;;;;;;10.18;3.30;;;26.00;59.60;;;;;;7400467;19;19946;-75
2023/03/20 09:26:38;;;;;;;7.15;3.00;;;25.70;59.10;;;;;;7365919;19;19914;-75
2023/03/20 09:29:04;;;;;;;7.78;3.17;;;25.50;59.50;;;;;;7399059;19;19922;-74
2023/03/20 09:31:30;;;;;;;7.95;2.97;;;25.90;58.00;;;;;;7405464;19;19926;-75
2023/03/20 09:33:56;;;;;;;9.30;2.55;;;24.50;57.90;;;;;;7407596;19;19911;-74
2023/03/20 09:36:22;;;;;;;3.88;1.67;;;22.70;57.70;;;;;;7402997;19;19998;-75
2023/03/20 09:38:48;;;;;;;4.53;1.27;;;23.90;56.00;;;;;;7403183;19;19923;-74
2023/03/20 09:41:20;;;;;;;3.08;1.25;;;23.70;53.50;;;;;;7403180;19;19926;-74
2023/03/20 09:43:58;;;;;;;10.38;2.80;;;22.10;54.50;;;;;;7403273;19;19952;-75
2023/03/20 09:46:56;;;;;;;8.90;2.95;;;22.20;59.40;;;;;;7404682;19;19927;-74
2023/03/20 09:50:00;;;;;;;7.10;2.70;;;23.20;58.10;;;;;;7401393;19;26236;-73
2023/03/20 09:52:39;;;;;;;6.95;2.55;;;23.10;57.10;;;;;;7403750;19;19932;-74
2023/03/20 09:55:18;;;;;;;6.80;2.80;;;22.50;59.80;;;;;;7402743;19;19939;-75
2023/03/20 09:57:51;;;;;;;8.02;3.30;;;22.70;60.50;;;;;;7397045;19;20284;-74
2023/03/20 10:00:19;;;;;;;6.53;2.08;;;23.00;59.90;;;;;;7387738;19;19910;-74
2023/03/20 10:02:59;;;;;;;6.25;1.70;;;21.60;58.80;;;;;;7398994;19;19936;-73
2023/03/20 10:05:27;;;;;;;7.40;3.67;;;21.00;58.80;;;;;;7399438;19;19922;-75
2023/03/20 10:08:00;;;;;;;15.73;4.45;;;20.10;65.40;;;;;;7403464;19;19939;-73
2023/03/20 10:10:58;;;;;;;9.93;5.13;;;20.30;67.20;;;;;;7395745;19;19903;-74
2023/03/20 10:13:43;;;;;;;11.18;5.35;;;19.70;69.10;;;;;;7394315;19;20317;-75
2023/03/20 10:16:28;;;;;;;9.10;4.13;;;19.70;70.80;;;;;;7396934;19;19985;-72
2023/03/20 10:19:06;;;;;;;10.68;5.38;;;20.10;71.90;;;;;;7401737;19;19915;-74
2023/03/20 10:22:10;;;;;;;9.10;5.25;;;20.30;69.40;;;;;;7385364;19;19918;-74
2023/03/20 10:24:44;;;;;;;13.90;5.60;;;21.00;68.50;;;;;;7399946;19;19914;-73
2023/03/20 10:27:36;;;;;;;10.93;5.30;;;21.40;67.50;;;;;;7398063;19;19925;-74
2023/03/20 10:30:23;;;;;;;10.05;5.20;;;20.90;67.60;;;;;;7397247;19;20347;-73
2023/03/20 10:33:23;;;;;;;12.48;5.10;;;20.80;67.70;;;;;;7395718;19;20316;-73
2023/03/20 10:36:22;;;;;;;13.65;5.35;;;20.60;68.40;;;;;;7401765;19;20723;-75
2023/03/20 10:39:09;;;;;;;12.88;4.95;;;20.60;68.50;;;;;;7399220;19;19914;-73
2023/03/20 10:41:38;;;;;;;11.32;4.53;;;20.40;69.30;;;;;;7400865;19;20586;-73
2023/03/20 10:44:09;;;;;;;11.48;4.53;;;20.50;68.30;;;;;;7402966;19;19914;-73
2023/03/20 10:46:42;;;;;;;9.50;3.80;;;21.10;67.70;;;;;;7400830;19;19923;-74
2023/03/20 10:49:25;;;;;;;9.85;4.00;;;21.20;65.80;;;;;;7392988;19;19927;-76
2023/03/20 10:51:55;;;;;;;14.02;5.30;;;21.50;65.40;;;;;;7398639;19;20081;-74
2023/03/20 10:54:26;;;;;;;9.70;4.28;;;22.00;64.00;;;;;;7393083;19;19918;-74
2023/03/20 10:56:56;;;;;;;7.53;3.78;;;22.10;63.70;;;;;;7402038;19;19923;-74
2023/03/20 10:59:23;;;;;;;8.85;4.05;;;22.70;63.40;;;;;;7401150;19;19919;-73
2023/03/20 11:01:50;;;;;;;12.00;4.95;;;23.00;63.20;;;;;;7400155;19;20327;-74
2023/03/20 11:04:15;;;;;;;8.75;4.43;;;22.70;64.10;;;;;;7367430;19;19914;-76
2023/03/20 11:07:21;;;;;;;10.50;5.10;;;22.70;64.90;;;;;;7399190;19;20335;-74
2023/03/20 11:10:06;;;;;;;15.23;5.10;;;22.90;66.00;;;;;;7389524;19;19935;-72
2023/03/20 11:12:42;;;;;;;7.80;4.60;;;23.00;66.60;;;;;;7379465;19;19915;-74
2023/03/20 11:15:24;;;;;;;9.57;4.60;;;22.80;66.80;;;;;;7393327;19;19915;-73
2023/03/20 11:17:55;;;;;;;10.88;5.70;;;23.00;67.00;;;;;;7404464;19;19954;-74
2023/03/20 11:20:22;;;;;;;14.40;6.28;;;23.60;66.90;;;;;;7391738;19;19919;-74
2023/03/20 11:22:49;;;;;;;9.48;6.10;;;23.80;66.50;;;;;;7384173;19;19911;-74
2023/03/20 11:25:45;;;;;;;12.52;6.40;;;23.80;66.70;;;;;;7402950;19;19914;-72
2023/03/20 11:28:29;;;;;;;10.05;5.72;;;23.80;66.60;;;;;;7370305;19;19945;-73
2023/03/20 11:31:06;;;;;;;11.68;5.50;;;24.00;66.70;;;;;;7391834;19;20332;-73
2023/03/20 11:33:40;;;;;;;9.20;5.45;;;24.00;65.50;;;;;;7394188;19;20330;-73
2023/03/20 11:36:28;;;;;;;9.75;5.25;;;23.80;65.50;;;;;;7396957;19;19960;-74
2023/03/20 11:39:26;;;;;;;11.43;5.50;;;24.30;63.80;;;;;;7390731;19;20335;-74
2023/03/20 11:41:54;;;;;;;12.38;6.25;;;23.90;64.90;;;;;;7397131;19;19922;-75
2023/03/20 11:44:24;;;;;;;13.70;5.53;;;24.00;66.10;;;;;;7371338;19;19927;-73
2023/03/20 11:47:04;;;;;;;9.23;5.65;;;23.90;66.60;;;;;;7395576;19;19918;-74
2023/03/20 11:49:32;;;;;;;10.05;5.47;;;23.90;65.90;;;;;;7402085;19;20770;-73
2023/03/20 11:52:21;;;;;;;10.60;5.13;;;24.00;67.40;;;;;;7395038;19;19926;-72
2023/03/20 11:54:54;;;;;;;8.75;5.57;;;24.60;67.20;;;;;;7396274;19;19914;-74
2023/03/20 11:57:32;;;;;;;13.75;5.20;;;24.70;67.40;;;;;;7391881;19;19991;-73
2023/03/20 12:00:05;;;;;;;11.10;5.78;;;24.60;67.70;;;;;;7385052;19;19944;-72
2023/03/20 12:02:32;;;;;;;10.75;5.03;;;23.60;68.70;;;;;;7393198;19;20348;-74
2023/03/20 12:05:01;;;;;;;9.38;5.45;;;22.80;71.30;;;;;;7394609;19;19939;-73
2023/03/20 12:07:32;;;;;;;10.35;5.13;;;23.10;71.00;;;;;;7394765;19;19926;-74
2023/03/20 12:10:12;;;;;;;8.07;5.32;;;23.60;70.00;;;;;;7385001;19;19942;-75
2023/03/20 12:13:00;;;;;;;9.90;5.30;;;24.40;69.00;;;;;;7403976;19;19922;-74
2023/03/20 12:15:33;;;;;;;11.32;5.97;;;25.20;68.00;;;;;;7393231;19;20406;-72
2023/03/20 12:18:16;;;;;;;9.75;5.43;;;24.30;69.10;;;;;;7388241;19;19921;-74
2023/03/20 12:21:18;;;;;;;12.93;5.90;;;24.10;69.10;;;;;;7394883;19;19915;-73
2023/03/20 12:23:48;;;;;;;10.80;6.45;;;24.30;68.90;;;;;;7398753;19;19925;-75
2023/03/20 12:26:41;;;;;;;11.77;6.22;;;24.40;67.90;;;;;;7397864;19;19922;-74
2023/03/20 12:29:15;;;;;;;9.50;6.03;;;24.20;67.70;;;;;;7389834;19;19924;-73
2023/03/20 12:31:49;;;;;;;12.25;5.80;;;23.30;68.90;;;;;;7394568;19;19930;-74
2023/03/20 12:34:24;;;;;;;12.68;5.45;;;23.50;68.40;;;;;;7363149;19;20324;-75
2023/03/20 12:36:51;;;;;;;8.93;5.55;;;24.30;67.60;;;;;;7397939;19;19914;-76
2023/03/20 12:39:24;;;;;;;10.27;5.65;;;24.50;68.10;;;;;;7400883;19;19955;-74
2023/03/20 12:42:14;;;;;;;8.20;5.22;;;24.60;68.50;;;;;;7403839;19;19951;-74
2023/03/20 12:44:49;;;;;;;11.00;6.07;;;24.90;66.90;;;;;;7400478;19;20003;-74
2023/03/20 12:47:38;;;;;;;10.82;5.47;;;25.20;65.90;;;;;;7406643;19;19924;-74
2023/03/20 12:50:23;;;;;;;8.93;6.18;;;25.20;64.20;;;;;;7401673;19;19906;-74
2023/03/20 12:53:04;;;;;;;10.55;6.03;;;23.60;67.30;;;;;;7408786;19;19919;-76
2023/03/20 12:55:42;;;;;;;8.57;5.55;;;23.60;67.70;;;;;;7402332;19;19926;-75
2023/03/20 12:58:37;;;;;;;12.88;5.28;;;23.90;66.90;;;;;;7404589;19;19919;-74
2023/03/20 13:01:25;;;;;;;8.38;4.88;;;24.50;63.90;;;;;;7395783;19;19919;-74
2023/03/20 13:04:13;;;;;;;10.55;5.65;;;24.80;65.40;;;;;;7402857;19;19933;-74
2023/03/20 13:06:57;;;;;;;8.70;5.70;;;25.20;65.00;;;;;;7400920;19;20343;-74
2023/03/20 13:09:46;;;;;;;10.23;5.38;;;24.90;64.40;;;;;;7399070;19;20020;-74
2023/03/20 13:12:26;;;;;;;7.63;5.47;;;25.30;64.00;;;;;;7401837;19;19981;-75